sensor_id;sensor_type;location;lat;lon;timestamp;pressure;altitude;pressure_sealevel;temperature
61390;BMP280;47260;48.274;19.814;2023-02-25T00:01:20;97457.66;;;2.32
61390;BMP280;47260;48.274;19.814;2023-02-25T00:02:53;97460.75;;;2.31
61390;BMP280;47260;48.274;19.814;2023-02-25T00:04:25;97455.25;;;2.34
61390;BMP280;47260;48.274;19.814;2023-02-25T00:05:56;97461.03;;;2.33
61390;BMP280;47260;48.274;19.814;2023-02-25T00:07:28;97467.75;;;2.34
61390;BMP280;47260;48.274;19.814;2023-02-25T00:09:01;97470.66;;;2.36
61390;BMP280;47260;48.274;19.814;2023-02-25T00:10:31;97475.94;;;2.36
61390;BMP280;47260;48.274;19.814;2023-02-25T00:12:03;97475.69;;;2.34
61390;BMP280;47260;48.274;19.814;2023-02-25T00:13:37;97480.75;;;2.32
61390;BMP280;47260;48.274;19.814;2023-02-25T00:15:08;97489.88;;;2.31
61390;BMP280;47260;48.274;19.814;2023-02-25T00:16:40;97488.22;;;2.28
61390;BMP280;47260;48.274;19.814;2023-02-25T00:18:12;97482.41;;;2.24
61390;BMP280;47260;48.274;19.814;2023-02-25T00:19:42;97480.00;;;2.26
61390;BMP280;47260;48.274;19.814;2023-02-25T00:21:15;97487.22;;;2.20
61390;BMP280;47260;48.274;19.814;2023-02-25T00:22:46;97473.00;;;2.17
61390;BMP280;47260;48.274;19.814;2023-02-25T00:24:18;97474.41;;;2.13
61390;BMP280;47260;48.274;19.814;2023-02-25T00:25:48;97474.91;;;2.17
61390;BMP280;47260;48.274;19.814;2023-02-25T00:27:20;97474.94;;;2.22
61390;BMP280;47260;48.274;19.814;2023-02-25T00:28:53;97477.13;;;2.24
61390;BMP280;47260;48.274;19.814;2023-02-25T00:30:25;97472.34;;;2.28
61390;BMP280;47260;48.274;19.814;2023-02-25T00:31:56;97463.41;;;2.31
61390;BMP280;47260;48.274;19.814;2023-02-25T00:33:27;97460.34;;;2.38
61390;BMP280;47260;48.274;19.814;2023-02-25T00:34:58;97449.97;;;2.34
61390;BMP280;47260;48.274;19.814;2023-02-25T00:36:31;97445.84;;;2.33
61390;BMP280;47260;48.274;19.814;2023-02-25T00:38:02;97443.72;;;2.37
61390;BMP280;47260;48.274;19.814;2023-02-25T00:39:36;97437.00;;;2.42
61390;BMP280;47260;48.274;19.814;2023-02-25T00:41:12;97431.47;;;2.40
61390;BMP280;47260;48.274;19.814;2023-02-25T00:42:42;97429.31;;;2.49
61390;BMP280;47260;48.274;19.814;2023-02-25T00:44:15;97429.13;;;2.53
61390;BMP280;47260;48.274;19.814;2023-02-25T00:45:47;97428.16;;;2.56
61390;BMP280;47260;48.274;19.814;2023-02-25T00:47:18;97419.00;;;2.57
61390;BMP280;47260;48.274;19.814;2023-02-25T00:48:50;97417.34;;;2.59
61390;BMP280;47260;48.274;19.814;2023-02-25T00:50:23;97404.34;;;2.61
61390;BMP280;47260;48.274;19.814;2023-02-25T00:51:54;97401.66;;;2.56
61390;BMP280;47260;48.274;19.814;2023-02-25T00:53:26;97400.47;;;2.57
61390;BMP280;47260;48.274;19.814;2023-02-25T00:54:57;97393.00;;;2.61
61390;BMP280;47260;48.274;19.814;2023-02-25T00:56:29;97390.13;;;2.59
61390;BMP280;47260;48.274;19.814;2023-02-25T00:58:01;97389.88;;;2.57
61390;BMP280;47260;48.274;19.814;2023-02-25T00:59:33;97384.81;;;2.59
61390;BMP280;47260;48.274;19.814;2023-02-25T01:01:05;97377.84;;;2.50
61390;BMP280;47260;48.274;19.814;2023-02-25T01:02:44;97373.25;;;2.51
61390;BMP280;47260;48.274;19.814;2023-02-25T01:04:16;97370.81;;;2.42
61390;BMP280;47260;48.274;19.814;2023-02-25T01:05:47;97358.56;;;2.44
61390;BMP280;47260;48.274;19.814;2023-02-25T01:07:18;97358.06;;;2.40
61390;BMP280;47260;48.274;19.814;2023-02-25T01:08:51;97352.28;;;2.42
61390;BMP280;47260;48.274;19.814;2023-02-25T01:10:22;97352.78;;;2.40
61390;BMP280;47260;48.274;19.814;2023-02-25T01:11:53;97351.34;;;2.45
61390;BMP280;47260;48.274;19.814;2023-02-25T01:13:24;97355.41;;;2.46
61390;BMP280;47260;48.274;19.814;2023-02-25T01:14:57;97352.53;;;2.49
61390;BMP280;47260;48.274;19.814;2023-02-25T01:16:30;97351.81;;;2.49
61390;BMP280;47260;48.274;19.814;2023-02-25T01:18:05;97355.16;;;2.44
61390;BMP280;47260;48.274;19.814;2023-02-25T01:19:36;97341.44;;;2.40
61390;BMP280;47260;48.274;19.814;2023-02-25T01:21:13;97338.56;;;2.38
61390;BMP280;47260;48.274;19.814;2023-02-25T01:22:44;97333.97;;;2.38
61390;BMP280;47260;48.274;19.814;2023-02-25T01:24:16;97337.13;;;2.42
61390;BMP280;47260;48.274;19.814;2023-02-25T01:25:49;97329.44;;;2.44
61390;BMP280;47260;48.274;19.814;2023-02-25T01:27:21;97330.63;;;2.43
61390;BMP280;47260;48.274;19.814;2023-02-25T01:28:53;97330.63;;;2.43
61390;BMP280;47260;48.274;19.814;2023-02-25T01:30:26;97327.00;;;2.35
61390;BMP280;47260;48.274;19.814;2023-02-25T01:31:58;97323.16;;;2.42
61390;BMP280;47260;48.274;19.814;2023-02-25T01:33:29;97323.41;;;2.49
61390;BMP280;47260;48.274;19.814;2023-02-25T01:35:01;97320.28;;;2.51
61390;BMP280;47260;48.274;19.814;2023-02-25T01:36:33;97313.53;;;2.44
61390;BMP280;47260;48.274;19.814;2023-02-25T01:38:05;97309.22;;;2.47
61390;BMP280;47260;48.274;19.814;2023-02-25T01:39:37;97314.50;;;2.47
61390;BMP280;47260;48.274;19.814;2023-02-25T01:41:08;97301.03;;;2.45
61390;BMP280;47260;48.274;19.814;2023-02-25T01:42:41;97307.50;;;2.44
61390;BMP280;47260;48.274;19.814;2023-02-25T01:44:14;97296.94;;;2.44
61390;BMP280;47260;48.274;19.814;2023-02-25T01:45:46;97298.63;;;2.47
61390;BMP280;47260;48.274;19.814;2023-02-25T01:47:18;97299.38;;;2.53
61390;BMP280;47260;48.274;19.814;2023-02-25T01:48:49;97292.84;;;2.54
61390;BMP280;47260;48.274;19.814;2023-02-25T01:50:21;97292.84;;;2.54
61390;BMP280;47260;48.274;19.814;2023-02-25T01:51:54;97284.44;;;2.55
61390;BMP280;47260;48.274;19.814;2023-02-25T01:53:28;97277.91;;;2.62
61390;BMP280;47260;48.274;19.814;2023-02-25T01:55:00;97265.91;;;2.61
61390;BMP280;47260;48.274;19.814;2023-02-25T01:56:36;97262.03;;;2.56
61390;BMP280;47260;48.274;19.814;2023-02-25T01:58:07;97256.50;;;2.54
61390;BMP280;47260;48.274;19.814;2023-02-25T01:59:42;97251.44;;;2.51
61390;BMP280;47260;48.274;19.814;2023-02-25T02:01:16;97240.84;;;2.51
61390;BMP280;47260;48.274;19.814;2023-02-25T02:02:49;97239.41;;;2.44
61390;BMP280;47260;48.274;19.814;2023-02-25T02:04:23;97242.06;;;2.44
61390;BMP280;47260;48.274;19.814;2023-02-25T02:05:58;97236.03;;;2.44
61390;BMP280;47260;48.274;19.814;2023-02-25T02:07:29;97242.78;;;2.45
61390;BMP280;47260;48.274;19.814;2023-02-25T02:09:01;97244.94;;;2.46
61390;BMP280;47260;48.274;19.814;2023-02-25T02:10:33;97247.84;;;2.43
61390;BMP280;47260;48.274;19.814;2023-02-25T02:12:07;97246.16;;;2.45
61390;BMP280;47260;48.274;19.814;2023-02-25T02:13:38;97245.44;;;2.45
61390;BMP280;47260;48.274;19.814;2023-02-25T02:15:10;97242.53;;;2.43
61390;BMP280;47260;48.274;19.814;2023-02-25T02:17:01;97237.00;;;2.41
61390;BMP280;47260;48.274;19.814;2023-02-25T02:18:35;97238.66;;;2.38
61390;BMP280;47260;48.274;19.814;2023-02-25T02:20:10;97230.72;;;2.38
61390;BMP280;47260;48.274;19.814;2023-02-25T02:21:45;97223.50;;;2.39
61390;BMP280;47260;48.274;19.814;2023-02-25T02:23:24;97223.28;;;2.42
61390;BMP280;47260;48.274;19.814;2023-02-25T02:25:06;97211.25;;;2.41
61390;BMP280;47260;48.274;19.814;2023-02-25T02:26:43;97205.47;;;2.32
61390;BMP280;47260;48.274;19.814;2023-02-25T02:28:25;97195.38;;;2.25
61390;BMP280;47260;48.274;19.814;2023-02-25T02:30:05;97181.88;;;2.28
61390;BMP280;47260;48.274;19.814;2023-02-25T02:31:46;97182.38;;;2.32
61390;BMP280;47260;48.274;19.814;2023-02-25T02:33:21;97188.13;;;2.36
61390;BMP280;47260;48.274;19.814;2023-02-25T02:34:55;97188.88;;;2.42
61390;BMP280;47260;48.274;19.814;2023-02-25T02:36:34;97179.47;;;2.47
61390;BMP280;47260;48.274;19.814;2023-02-25T02:38:10;97172.50;;;2.49
61390;BMP280;47260;48.274;19.814;2023-02-25T02:39:46;97168.91;;;2.47
61390;BMP280;47260;48.274;19.814;2023-02-25T02:41:22;97158.53;;;2.43
61390;BMP280;47260;48.274;19.814;2023-02-25T02:42:59;97154.91;;;2.41
61390;BMP280;47260;48.274;19.814;2023-02-25T02:44:37;97153.25;;;2.38
61390;BMP280;47260;48.274;19.814;2023-02-25T02:46:12;97149.16;;;2.37
61390;BMP280;47260;48.274;19.814;2023-02-25T02:47:47;97149.66;;;2.30
61390;BMP280;47260;48.274;19.814;2023-02-25T02:49:22;97153.25;;;2.32
61390;BMP280;47260;48.274;19.814;2023-02-25T02:50:56;97150.59;;;2.32
61390;BMP280;47260;48.274;19.814;2023-02-25T02:52:28;97160.97;;;2.30
61390;BMP280;47260;48.274;19.814;2023-02-25T02:54:00;97162.38;;;2.31
61390;BMP280;47260;48.274;19.814;2023-02-25T02:55:35;97161.41;;;2.29
61390;BMP280;47260;48.274;19.814;2023-02-25T02:57:09;97167.69;;;2.31
61390;BMP280;47260;48.274;19.814;2023-02-25T02:58:46;97152.75;;;2.34
61390;BMP280;47260;48.274;19.814;2023-02-25T03:00:19;97154.22;;;2.35
61390;BMP280;47260;48.274;19.814;2023-02-25T03:01:56;97151.56;;;2.35
61390;BMP280;47260;48.274;19.814;2023-02-25T03:03:32;97149.38;;;2.33
61390;BMP280;47260;48.274;19.814;2023-02-25T03:05:09;97153.25;;;2.32
61390;BMP280;47260;48.274;19.814;2023-02-25T03:06:42;97153.50;;;2.34
61390;BMP280;47260;48.274;19.814;2023-02-25T03:08:15;97161.44;;;2.34
61390;BMP280;47260;48.274;19.814;2023-02-25T03:09:49;97168.66;;;2.34
61390;BMP280;47260;48.274;19.814;2023-02-25T03:11:21;97163.59;;;2.36
61390;BMP280;47260;48.274;19.814;2023-02-25T03:12:53;97165.28;;;2.39
61390;BMP280;47260;48.274;19.814;2023-02-25T03:14:24;97171.53;;;2.41
61390;BMP280;47260;48.274;19.814;2023-02-25T03:15:56;97164.09;;;2.40
61390;BMP280;47260;48.274;19.814;2023-02-25T03:17:30;97158.06;;;2.39
61390;BMP280;47260;48.274;19.814;2023-02-25T03:19:07;97150.59;;;2.32
61390;BMP280;47260;48.274;19.814;2023-02-25T03:20:39;97152.03;;;2.33
61390;BMP280;47260;48.274;19.814;2023-02-25T03:22:12;97155.41;;;2.34
61390;BMP280;47260;48.274;19.814;2023-02-25T03:23:44;97162.16;;;2.35
61390;BMP280;47260;48.274;19.814;2023-02-25T03:25:17;97159.50;;;2.35
61390;BMP280;47260;48.274;19.814;2023-02-25T03:26:50;97165.03;;;2.37
61390;BMP280;47260;48.274;19.814;2023-02-25T03:28:26;97187.19;;;2.23
61390;BMP280;47260;48.274;19.814;2023-02-25T03:30:01;97185.75;;;2.22
61390;BMP280;47260;48.274;19.814;2023-02-25T03:31:35;97186.72;;;2.24
61390;BMP280;47260;48.274;19.814;2023-02-25T03:33:10;97188.16;;;2.25
61390;BMP280;47260;48.274;19.814;2023-02-25T03:34:44;97196.56;;;2.24
61390;BMP280;47260;48.274;19.814;2023-02-25T03:36:18;97185.75;;;2.27
61390;BMP280;47260;48.274;19.814;2023-02-25T03:37:50;97185.03;;;2.27
61390;BMP280;47260;48.274;19.814;2023-02-25T03:39:25;97187.41;;;2.36
61390;BMP280;47260;48.274;19.814;2023-02-25T03:40:57;97185.47;;;2.31
61390;BMP280;47260;48.274;19.814;2023-02-25T03:42:31;97192.00;;;2.35
61390;BMP280;47260;48.274;19.814;2023-02-25T03:44:04;97189.34;;;2.35
61390;BMP280;47260;48.274;19.814;2023-02-25T03:45:36;97193.44;;;2.36
61390;BMP280;47260;48.274;19.814;2023-02-25T03:47:08;97194.63;;;2.41
61390;BMP280;47260;48.274;19.814;2023-02-25T03:48:41;97198.25;;;2.43
61390;BMP280;47260;48.274;19.814;2023-02-25T03:50:17;97191.25;;;2.46
61390;BMP280;47260;48.274;19.814;2023-02-25T03:51:56;97205.72;;;2.56
61390;BMP280;47260;48.274;19.814;2023-02-25T03:53:29;97204.28;;;2.55
61390;BMP280;47260;48.274;19.814;2023-02-25T03:55:04;97202.38;;;2.55
61390;BMP280;47260;48.274;19.814;2023-02-25T03:56:40;97199.22;;;2.57
61390;BMP280;47260;48.274;19.814;2023-02-25T03:58:11;97205.97;;;2.52
61390;BMP280;47260;48.274;19.814;2023-02-25T03:59:42;97211.00;;;2.56
61390;BMP280;47260;48.274;19.814;2023-02-25T04:01:14;97211.00;;;2.56
61390;BMP280;47260;48.274;19.814;2023-02-25T04:02:47;97214.16;;;2.60
61390;BMP280;47260;48.274;19.814;2023-02-25T04:04:18;97220.63;;;2.59
61390;BMP280;47260;48.274;19.814;2023-02-25T04:05:51;97215.34;;;2.59
61390;BMP280;47260;48.274;19.814;2023-02-25T04:07:21;97221.09;;;2.63
61390;BMP280;47260;48.274;19.814;2023-02-25T04:08:53;97225.44;;;2.66
61390;BMP280;47260;48.274;19.814;2023-02-25T04:10:24;97226.38;;;2.68
61390;BMP280;47260;48.274;19.814;2023-02-25T04:11:56;97231.47;;;2.72
61390;BMP280;47260;48.274;19.814;2023-02-25T04:13:27;97234.56;;;2.76
61390;BMP280;47260;48.274;19.814;2023-02-25T04:14:59;97239.16;;;2.81
61390;BMP280;47260;48.274;19.814;2023-02-25T04:16:30;97236.25;;;2.79
61390;BMP280;47260;48.274;19.814;2023-02-25T04:18:03;97235.53;;;2.79
61390;BMP280;47260;48.274;19.814;2023-02-25T04:19:34;97235.53;;;2.79
61390;BMP280;47260;48.274;19.814;2023-02-25T04:21:08;97244.94;;;2.85
61390;BMP280;47260;48.274;19.814;2023-02-25T04:22:39;97241.31;;;2.88
61390;BMP280;47260;48.274;19.814;2023-02-25T04:24:11;97242.25;;;3.02
61390;BMP280;47260;48.274;19.814;2023-02-25T04:25:41;97236.44;;;3.03
61390;BMP280;47260;48.274;19.814;2023-02-25T04:27:13;97231.38;;;3.11
61390;BMP280;47260;48.274;19.814;2023-02-25T04:28:45;97240.78;;;3.17
61390;BMP280;47260;48.274;19.814;2023-02-25T04:30:17;97224.41;;;3.13
61390;BMP280;47260;48.274;19.814;2023-02-25T04:31:48;97224.91;;;3.06
61390;BMP280;47260;48.274;19.814;2023-02-25T04:33:19;97236.94;;;3.02
61390;BMP280;47260;48.274;19.814;2023-02-25T04:34:50;97230.69;;;3.05
61390;BMP280;47260;48.274;19.814;2023-02-25T04:36:24;97230.69;;;3.10
61390;BMP280;47260;48.274;19.814;2023-02-25T04:37:56;97213.47;;;3.33
61390;BMP280;47260;48.274;19.814;2023-02-25T04:39:27;97211.78;;;3.36
61390;BMP280;47260;48.274;19.814;2023-02-25T04:40:58;97213.00;;;3.35
61390;BMP280;47260;48.274;19.814;2023-02-25T04:42:29;97220.69;;;3.38
61390;BMP280;47260;48.274;19.814;2023-02-25T04:44:01;97218.53;;;3.42
61390;BMP280;47260;48.274;19.814;2023-02-25T04:45:33;97242.63;;;3.39
61390;BMP280;47260;48.274;19.814;2023-02-25T04:47:04;97240.94;;;3.41
61390;BMP280;47260;48.274;19.814;2023-02-25T04:48:35;97231.81;;;3.37
61390;BMP280;47260;48.274;19.814;2023-02-25T04:50:07;97224.34;;;3.35
61390;BMP280;47260;48.274;19.814;2023-02-25T04:51:40;97219.28;;;3.32
61390;BMP280;47260;48.274;19.814;2023-02-25T04:53:11;97212.28;;;3.34
61390;BMP280;47260;48.274;19.814;2023-02-25T04:54:43;97217.56;;;3.40
61390;BMP280;47260;48.274;19.814;2023-02-25T04:56:14;97233.72;;;3.42
61390;BMP280;47260;48.274;19.814;2023-02-25T04:57:45;97222.06;;;3.51
61390;BMP280;47260;48.274;19.814;2023-02-25T04:59:17;97223.91;;;3.78
61390;BMP280;47260;48.274;19.814;2023-02-25T05:00:48;97205.28;;;3.83
61390;BMP280;47260;48.274;19.814;2023-02-25T05:02:19;97191.03;;;3.86
61390;BMP280;47260;48.274;19.814;2023-02-25T05:03:51;97184.78;;;3.84
61390;BMP280;47260;48.274;19.814;2023-02-25T05:05:25;97184.56;;;3.82
61390;BMP280;47260;48.274;19.814;2023-02-25T05:06:58;97180.22;;;3.79
61390;BMP280;47260;48.274;19.814;2023-02-25T05:08:30;97151.31;;;3.75
61390;BMP280;47260;48.274;19.814;2023-02-25T05:10:02;97145.50;;;3.77
61390;BMP280;47260;48.274;19.814;2023-02-25T05:11:34;97139.22;;;3.80
61390;BMP280;47260;48.274;19.814;2023-02-25T05:13:05;97128.84;;;3.82
61390;BMP280;47260;48.274;19.814;2023-02-25T05:14:36;97142.09;;;3.82
61390;BMP280;47260;48.274;19.814;2023-02-25T05:16:08;97142.31;;;3.84
61390;BMP280;47260;48.274;19.814;2023-02-25T05:17:40;97150.47;;;3.91
61390;BMP280;47260;48.274;19.814;2023-02-25T05:19:13;97157.41;;;4.00
61390;BMP280;47260;48.274;19.814;2023-02-25T05:20:45;97155.91;;;4.10
61390;BMP280;47260;48.274;19.814;2023-02-25T05:22:18;97153.84;;;4.22
61390;BMP280;47260;48.274;19.814;2023-02-25T05:23:50;97149.31;;;4.41
61390;BMP280;47260;48.274;19.814;2023-02-25T05:25:22;97146.53;;;4.57
61390;BMP280;47260;48.274;19.814;2023-02-25T05:26:54;97132.69;;;4.64
61390;BMP280;47260;48.274;19.814;2023-02-25T05:28:24;97137.00;;;4.67
61390;BMP280;47260;48.274;19.814;2023-02-25T05:29:56;97135.44;;;4.77
61390;BMP280;47260;48.274;19.814;2023-02-25T05:31:27;97151.56;;;4.85
61390;BMP280;47260;48.274;19.814;2023-02-25T05:32:59;97150.56;;;4.88
61390;BMP280;47260;48.274;19.814;2023-02-25T05:34:29;97144.66;;;4.95
61390;BMP280;47260;48.274;19.814;2023-02-25T05:36:01;97149.25;;;4.95
61390;BMP280;47260;48.274;19.814;2023-02-25T05:37:36;97153.13;;;4.93
61390;BMP280;47260;48.274;19.814;2023-02-25T05:39:07;97152.59;;;5.01
61390;BMP280;47260;48.274;19.814;2023-02-25T05:40:39;97147.97;;;5.01
61390;BMP280;47260;48.274;19.814;2023-02-25T05:42:10;97149.63;;;5.04
61390;BMP280;47260;48.274;19.814;2023-02-25T05:43:41;97133.47;;;5.02
61390;BMP280;47260;48.274;19.814;2023-02-25T05:45:15;97142.91;;;5.03
61390;BMP280;47260;48.274;19.814;2023-02-25T05:46:47;97150.75;;;5.09
61390;BMP280;47260;48.274;19.814;2023-02-25T05:48:18;97137.97;;;5.07
61390;BMP280;47260;48.274;19.814;2023-02-25T05:49:50;97133.59;;;5.10
61390;BMP280;47260;48.274;19.814;2023-02-25T05:51:21;97144.91;;;5.16
61390;BMP280;47260;48.274;19.814;2023-02-25T05:52:54;97148.00;;;5.20
61390;BMP280;47260;48.274;19.814;2023-02-25T05:54:26;97146.28;;;5.22
61390;BMP280;47260;48.274;19.814;2023-02-25T05:55:57;97146.06;;;5.20
61390;BMP280;47260;48.274;19.814;2023-02-25T05:57:27;97154.25;;;5.22
61390;BMP280;47260;48.274;19.814;2023-02-25T05:58:59;97156.38;;;5.24
61390;BMP280;47260;48.274;19.814;2023-02-25T06:00:29;97169.09;;;5.31
61390;BMP280;47260;48.274;19.814;2023-02-25T06:02:01;97170.78;;;5.34
61390;BMP280;47260;48.274;19.814;2023-02-25T06:03:33;97176.81;;;5.34
61390;BMP280;47260;48.274;19.814;2023-02-25T06:05:05;97177.03;;;5.36
61390;BMP280;47260;48.274;19.814;2023-02-25T06:06:37;97188.41;;;5.37
61390;BMP280;47260;48.274;19.814;2023-02-25T06:08:10;97201.69;;;5.37
61390;BMP280;47260;48.274;19.814;2023-02-25T06:09:41;97208.94;;;5.36
61390;BMP280;47260;48.274;19.814;2023-02-25T06:11:16;97220.09;;;5.35
61390;BMP280;47260;48.274;19.814;2023-02-25T06:12:47;97211.81;;;5.38
61390;BMP280;47260;48.274;19.814;2023-02-25T06:14:18;97218.56;;;5.39
61390;BMP280;47260;48.274;19.814;2023-02-25T06:15:50;97234.25;;;5.43
61390;BMP280;47260;48.274;19.814;2023-02-25T06:17:23;97230.16;;;5.42
61390;BMP280;47260;48.274;19.814;2023-02-25T06:18:54;97234.97;;;5.43
61390;BMP280;47260;48.274;19.814;2023-02-25T06:20:26;97240.78;;;5.42
61390;BMP280;47260;48.274;19.814;2023-02-25T06:21:57;97242.94;;;5.43
61390;BMP280;47260;48.274;19.814;2023-02-25T06:23:30;97250.44;;;5.45
61390;BMP280;47260;48.274;19.814;2023-02-25T06:25:02;97261.34;;;5.41
61390;BMP280;47260;48.274;19.814;2023-02-25T06:26:33;97259.19;;;5.40
61390;BMP280;47260;48.274;19.814;2023-02-25T06:28:10;97265.94;;;5.41
61390;BMP280;47260;48.274;19.814;2023-02-25T06:29:45;97266.19;;;5.43
61390;BMP280;47260;48.274;19.814;2023-02-25T06:31:18;97267.63;;;5.44
61390;BMP280;47260;48.274;19.814;2023-02-25T06:32:51;97262.28;;;5.44
61390;BMP280;47260;48.274;19.814;2023-02-25T06:34:23;97258.63;;;5.47
61390;BMP280;47260;48.274;19.814;2023-02-25T06:36:01;97268.28;;;5.50
61390;BMP280;47260;48.274;19.814;2023-02-25T06:37:34;97267.06;;;5.51
61390;BMP280;47260;48.274;19.814;2023-02-25T06:39:06;97263.91;;;5.52
61390;BMP280;47260;48.274;19.814;2023-02-25T06:40:38;97269.97;;;5.53
61390;BMP280;47260;48.274;19.814;2023-02-25T06:42:10;97271.56;;;5.56
61390;BMP280;47260;48.274;19.814;2023-02-25T06:43:42;97263.53;;;5.61
61390;BMP280;47260;48.274;19.814;2023-02-25T06:45:13;97266.25;;;5.56
61390;BMP280;47260;48.274;19.814;2023-02-25T06:46:45;97261.59;;;5.62
61390;BMP280;47260;48.274;19.814;2023-02-25T06:48:16;97251.94;;;5.59
61390;BMP280;47260;48.274;19.814;2023-02-25T06:49:48;97252.41;;;5.63
61390;BMP280;47260;48.274;19.814;2023-02-25T06:51:19;97256.50;;;5.64
61390;BMP280;47260;48.274;19.814;2023-02-25T06:52:51;97254.34;;;5.62
61390;BMP280;47260;48.274;19.814;2023-02-25T06:54:24;97251.69;;;5.62
61390;BMP280;47260;48.274;19.814;2023-02-25T06:55:57;97253.09;;;5.63
61390;BMP280;47260;48.274;19.814;2023-02-25T06:57:27;97253.56;;;5.68
61390;BMP280;47260;48.274;19.814;2023-02-25T06:58:59;97257.13;;;5.70
61390;BMP280;47260;48.274;19.814;2023-02-25T07:00:30;97254.97;;;5.68
61390;BMP280;47260;48.274;19.814;2023-02-25T07:02:02;97247.22;;;5.71
61390;BMP280;47260;48.274;19.814;2023-02-25T07:03:33;97256.63;;;5.72
61390;BMP280;47260;48.274;19.814;2023-02-25T07:05:04;97254.91;;;5.74
61390;BMP280;47260;48.274;19.814;2023-02-25T07:06:36;97259.44;;;5.79
61390;BMP280;47260;48.274;19.814;2023-02-25T07:08:07;97266.94;;;5.81
61390;BMP280;47260;48.274;19.814;2023-02-25T07:09:40;97275.53;;;5.87
61390;BMP280;47260;48.274;19.814;2023-02-25T07:11:13;97286.84;;;5.93
61390;BMP280;47260;48.274;19.814;2023-02-25T07:12:45;97292.41;;;5.95
61390;BMP280;47260;48.274;19.814;2023-02-25T07:14:16;97302.44;;;6.02
61390;BMP280;47260;48.274;19.814;2023-02-25T07:15:48;97319.66;;;6.01
61390;BMP280;47260;48.274;19.814;2023-02-25T07:17:19;97317.00;;;6.01
61390;BMP280;47260;48.274;19.814;2023-02-25T07:18:51;97310.94;;;6.00
61390;BMP280;47260;48.274;19.814;2023-02-25T07:20:22;97321.59;;;6.00
61390;BMP280;47260;48.274;19.814;2023-02-25T07:21:54;97326.19;;;6.00
61390;BMP280;47260;48.274;19.814;2023-02-25T07:23:25;97321.09;;;6.02
61390;BMP280;47260;48.274;19.814;2023-02-25T07:24:58;97319.88;;;6.03
61390;BMP280;47260;48.274;19.814;2023-02-25T07:26:29;97325.19;;;6.03
61390;BMP280;47260;48.274;19.814;2023-02-25T07:28:01;97332.97;;;6.01
61390;BMP280;47260;48.274;19.814;2023-02-25T07:29:32;97330.03;;;6.04
61390;BMP280;47260;48.274;19.814;2023-02-25T07:31:07;97341.44;;;5.99
61390;BMP280;47260;48.274;19.814;2023-02-25T07:32:40;97335.63;;;6.01
61390;BMP280;47260;48.274;19.814;2023-02-25T07:34:11;97346.50;;;6.03
61390;BMP280;47260;48.274;19.814;2023-02-25T07:35:43;97349.25;;;5.97
61390;BMP280;47260;48.274;19.814;2023-02-25T07:37:15;97358.97;;;5.95
61390;BMP280;47260;48.274;19.814;2023-02-25T07:38:46;97349.53;;;5.94
61390;BMP280;47260;48.274;19.814;2023-02-25T07:40:20;97352.91;;;5.94
61390;BMP280;47260;48.274;19.814;2023-02-25T07:41:51;97362.34;;;5.95
61390;BMP280;47260;48.274;19.814;2023-02-25T07:43:23;97354.97;;;6.01
61390;BMP280;47260;48.274;19.814;2023-02-25T07:44:55;97369.97;;;6.04
61390;BMP280;47260;48.274;19.814;2023-02-25T07:46:26;97368.28;;;6.01
61390;BMP280;47260;48.274;19.814;2023-02-25T07:47:58;97364.22;;;6.00
61390;BMP280;47260;48.274;19.814;2023-02-25T07:49:29;97371.84;;;6.09
61390;BMP280;47260;48.274;19.814;2023-02-25T07:51:04;97381.56;;;6.07
61390;BMP280;47260;48.274;19.814;2023-02-25T07:52:36;97396.22;;;6.13
61390;BMP280;47260;48.274;19.814;2023-02-25T07:54:07;97400.50;;;6.22
61390;BMP280;47260;48.274;19.814;2023-02-25T07:55:42;97409.47;;;6.19
61390;BMP280;47260;48.274;19.814;2023-02-25T07:57:13;97413.31;;;6.23
61390;BMP280;47260;48.274;19.814;2023-02-25T07:58:45;97414.53;;;6.22
61390;BMP280;47260;48.274;19.814;2023-02-25T08:00:17;97418.41;;;6.21
61390;BMP280;47260;48.274;19.814;2023-02-25T08:01:48;97425.94;;;6.23
61390;BMP280;47260;48.274;19.814;2023-02-25T08:03:20;97434.41;;;6.21
61390;BMP280;47260;48.274;19.814;2023-02-25T08:04:51;97426.41;;;6.21
61390;BMP280;47260;48.274;19.814;2023-02-25T08:06:23;97434.53;;;6.29
61390;BMP280;47260;48.274;19.814;2023-02-25T08:07:54;97436.25;;;6.26
61390;BMP280;47260;48.274;19.814;2023-02-25T08:09:26;97432.38;;;6.27
61390;BMP280;47260;48.274;19.814;2023-02-25T08:11:02;97430.16;;;6.31
61390;BMP280;47260;48.274;19.814;2023-02-25T08:12:33;97418.06;;;6.30
61390;BMP280;47260;48.274;19.814;2023-02-25T08:14:05;97430.53;;;6.22
61390;BMP280;47260;48.274;19.814;2023-02-25T08:15:39;97441.66;;;6.21
61390;BMP280;47260;48.274;19.814;2023-02-25T08:17:10;97435.84;;;6.22
61390;BMP280;47260;48.274;19.814;2023-02-25T08:18:42;97422.66;;;6.30
61390;BMP280;47260;48.274;19.814;2023-02-25T08:20:14;97434.41;;;6.40
61390;BMP280;47260;48.274;19.814;2023-02-25T08:21:45;97437.66;;;6.52
61390;BMP280;47260;48.274;19.814;2023-02-25T08:23:17;97439.66;;;6.64
61390;BMP280;47260;48.274;19.814;2023-02-25T08:24:48;97443.91;;;6.73
61390;BMP280;47260;48.274;19.814;2023-02-25T08:26:22;97448.44;;;6.78
61390;BMP280;47260;48.274;19.814;2023-02-25T08:27:54;97442.78;;;6.81
61390;BMP280;47260;48.274;19.814;2023-02-25T08:29:27;97451.03;;;6.83
61390;BMP280;47260;48.274;19.814;2023-02-25T08:30:59;97457.28;;;6.86
61390;BMP280;47260;48.274;19.814;2023-02-25T08:32:30;97460.56;;;6.92
61390;BMP280;47260;48.274;19.814;2023-02-25T08:34:04;97476.44;;;7.03
61390;BMP280;47260;48.274;19.814;2023-02-25T08:35:36;97470.66;;;6.99
61390;BMP280;47260;48.274;19.814;2023-02-25T08:37:07;97475.78;;;6.97
61390;BMP280;47260;48.274;19.814;2023-02-25T08:38:40;97481.13;;;6.97
61390;BMP280;47260;48.274;19.814;2023-02-25T08:40:11;97483.66;;;6.89
61390;BMP280;47260;48.274;19.814;2023-02-25T08:41:45;97486.84;;;6.88
61390;BMP280;47260;48.274;19.814;2023-02-25T08:43:17;97487.13;;;6.84
61390;BMP280;47260;48.274;19.814;2023-02-25T08:44:48;97482.22;;;6.70
61390;BMP280;47260;48.274;19.814;2023-02-25T08:46:20;97485.50;;;6.63
61390;BMP280;47260;48.274;19.814;2023-02-25T08:47:52;97471.94;;;6.61
61390;BMP280;47260;48.274;19.814;2023-02-25T08:49:23;97461.56;;;6.76
61390;BMP280;47260;48.274;19.814;2023-02-25T08:50:55;97474.31;;;6.96
61390;BMP280;47260;48.274;19.814;2023-02-25T08:52:26;97473.44;;;7.06
61390;BMP280;47260;48.274;19.814;2023-02-25T08:54:03;97485.81;;;7.22